createdAt,value
2018-12-19T00:00:11.982Z,7.11
2018-12-19T00:00:38.090Z,7.1
2018-12-19T00:01:04.201Z,7.07
2018-12-19T00:01:30.304Z,7.15
2018-12-19T00:01:56.412Z,7.1
2018-12-19T00:02:22.515Z,7.11
2018-12-19T00:02:48.620Z,7.05
2018-12-19T00:03:14.748Z,7.05
2018-12-19T00:03:40.846Z,7.11
2018-12-19T00:04:06.955Z,7.1
2018-12-19T00:04:33.079Z,7.13
2018-12-19T00:04:59.207Z,6.97
2018-12-19T00:05:25.308Z,6.97
2018-12-19T00:05:51.415Z,6.99
2018-12-19T00:06:17.526Z,6.96
2018-12-19T00:06:43.655Z,6.99
2018-12-19T00:07:09.760Z,6.96
2018-12-19T00:07:35.864Z,7
2018-12-19T00:08:01.978Z,6.96
2018-12-19T00:08:28.076Z,7
2018-12-19T00:08:54.190Z,6.99
2018-12-19T00:09:21.280Z,6.96
2018-12-19T00:09:47.389Z,6.96
2018-12-19T00:10:13.520Z,6.97
2018-12-19T00:10:39.619Z,6.96
2018-12-19T00:11:05.728Z,7
2018-12-19T00:11:31.832Z,7.03
2018-12-19T00:11:57.941Z,7.03
2018-12-19T00:12:24.047Z,6.99
2018-12-19T00:12:50.174Z,7.07
2018-12-19T00:13:16.309Z,7.11
2018-12-19T00:13:42.408Z,7.03
2018-12-19T00:14:08.511Z,7.14
2018-12-19T00:14:34.618Z,7.11
2018-12-19T00:15:00.722Z,7.11
2018-12-19T00:15:26.891Z,7.13
2018-12-19T00:15:53.027Z,7.07
2018-12-19T00:16:19.161Z,7.02
2018-12-19T00:16:45.287Z,6.99
2018-12-19T00:17:11.397Z,6.96
2018-12-19T00:17:37.498Z,6.99
2018-12-19T00:18:03.631Z,6.97
2018-12-19T00:18:29.751Z,6.96
2018-12-19T00:18:55.876Z,6.99
2018-12-19T00:19:21.979Z,6.99
2018-12-19T00:19:48.089Z,6.96
2018-12-19T00:20:14.223Z,6.97
2018-12-19T00:20:40.324Z,7.03
2018-12-19T00:21:06.432Z,6.97
2018-12-19T00:21:32.536Z,6.96
2018-12-19T00:21:58.641Z,6.97
2018-12-19T00:22:24.780Z,7
2018-12-19T00:22:50.943Z,6.95
2018-12-19T00:23:17.042Z,6.95
2018-12-19T00:23:43.148Z,6.97
2018-12-19T00:24:09.254Z,6.97
2018-12-19T00:24:35.409Z,7.02
2018-12-19T00:25:01.459Z,7.02
2018-12-19T00:25:27.596Z,7.1
2018-12-19T00:25:53.698Z,7
2018-12-19T00:26:19.835Z,7.1
2018-12-19T00:26:45.942Z,7.05
2018-12-19T00:27:12.051Z,6.97
2018-12-19T00:27:38.192Z,6.99
2018-12-19T00:28:04.295Z,6.97
2018-12-19T00:28:30.402Z,6.99
2018-12-19T00:28:56.506Z,7.02
2018-12-19T00:29:22.607Z,7
2018-12-19T00:29:48.719Z,7
2018-12-19T00:30:14.820Z,7.11
2018-12-19T00:30:40.925Z,6.99
2018-12-19T00:31:07.026Z,6.99
2018-12-19T00:31:33.139Z,6.96
2018-12-19T00:31:59.246Z,6.97
2018-12-19T00:32:25.358Z,6.95
2018-12-19T00:32:51.457Z,7
2018-12-19T00:33:17.566Z,6.93
2018-12-19T00:33:43.698Z,6.95
2018-12-19T00:34:09.803Z,6.96
2018-12-19T00:34:35.909Z,6.93
2018-12-19T00:35:02.013Z,6.95
2018-12-19T00:35:28.118Z,6.97
2018-12-19T00:35:54.217Z,6.97
2018-12-19T00:36:20.351Z,6.93
2018-12-19T00:36:46.494Z,6.97
2018-12-19T00:37:12.596Z,6.97
2018-12-19T00:37:38.702Z,6.99
2018-12-19T00:38:04.812Z,6.97
2018-12-19T00:38:30.912Z,6.97
2018-12-19T00:38:57.016Z,6.99
2018-12-19T00:39:24.118Z,6.96
2018-12-19T00:39:50.227Z,7.02
2018-12-19T00:40:16.329Z,6.99
2018-12-19T00:40:42.440Z,6.97
2018-12-19T00:41:08.543Z,7.02
2018-12-19T00:41:34.648Z,7.07
2018-12-19T00:42:00.790Z,7.17
2018-12-19T00:42:26.901Z,7.07
2018-12-19T00:42:53.010Z,7.14
2018-12-19T00:43:19.113Z,7.11
2018-12-19T00:43:45.222Z,7.14
2018-12-19T00:44:11.388Z,7.18
2018-12-19T00:44:38.139Z,7.21
2018-12-19T00:45:04.252Z,7.17
2018-12-19T00:45:30.358Z,7.18
2018-12-19T00:45:56.492Z,7.15
2018-12-19T00:46:22.616Z,7.25
2018-12-19T00:46:48.722Z,7.2
2018-12-19T00:47:14.854Z,7.25
2018-12-19T00:47:40.966Z,7.29
2018-12-19T00:48:07.064Z,7.32
2018-12-19T00:48:33.169Z,7.24
2018-12-19T00:48:59.282Z,7.29
2018-12-19T00:49:25.400Z,7.32
2018-12-19T00:49:51.491Z,7.42
2018-12-19T00:50:17.625Z,7.35
2018-12-19T00:50:43.752Z,7.38
2018-12-19T00:51:09.851Z,7.38
2018-12-19T00:51:35.960Z,7.36
2018-12-19T00:52:02.065Z,7.42
2018-12-19T00:52:28.163Z,7.5
2018-12-19T00:52:54.273Z,7.48
2018-12-19T00:53:20.385Z,7.4
2018-12-19T00:53:46.485Z,7.48
2018-12-19T00:54:12.591Z,7.4
2018-12-19T00:54:38.691Z,7.39
2018-12-19T00:55:04.827Z,7.39
2018-12-19T00:55:30.934Z,7.42
2018-12-19T00:55:57.034Z,7.36
2018-12-19T00:56:23.142Z,7.5
2018-12-19T00:56:49.251Z,7.36
2018-12-19T00:57:15.356Z,7.43
2018-12-19T00:57:41.459Z,7.43
2018-12-19T00:58:07.564Z,7.4
2018-12-19T00:58:33.669Z,7.39
2018-12-19T00:58:59.775Z,7.4
2018-12-19T00:59:25.912Z,7.47
2018-12-19T00:59:52.021Z,7.42
2018-12-19T01:00:18.126Z,7.42
2018-12-19T01:00:44.292Z,7.4
2018-12-19T01:01:10.430Z,7.47
2018-12-19T01:01:36.533Z,7.42
2018-12-19T01:02:02.633Z,7.4
2018-12-19T01:02:28.737Z,7.39
2018-12-19T01:02:54.841Z,7.4
2018-12-19T01:03:20.971Z,7.47
2018-12-19T01:03:47.076Z,7.38
2018-12-19T01:04:13.174Z,7.42
2018-12-19T01:04:39.281Z,7.47
2018-12-19T01:05:05.408Z,7.47
2018-12-19T01:05:31.519Z,7.45
2018-12-19T01:05:57.618Z,7.54
2018-12-19T01:06:23.727Z,7.43
2018-12-19T01:06:49.836Z,7.43
2018-12-19T01:07:15.947Z,7.54
2018-12-19T01:07:42.048Z,7.48
2018-12-19T01:08:08.148Z,7.5
2018-12-19T01:08:34.251Z,7.57
2018-12-19T01:09:00.358Z,7.54
2018-12-19T01:09:27.454Z,7.51
2018-12-19T01:09:53.562Z,7.56
2018-12-19T01:10:19.671Z,7.51
2018-12-19T01:10:45.807Z,7.51
2018-12-19T01:11:11.908Z,7.58
2018-12-19T01:11:38.016Z,7.53
2018-12-19T01:12:04.125Z,7.56
2018-12-19T01:12:30.234Z,7.56
2018-12-19T01:12:56.336Z,7.57
2018-12-19T01:13:22.462Z,7.53
2018-12-19T01:13:48.571Z,7.58
2018-12-19T01:14:14.676Z,7.56
2018-12-19T01:14:40.784Z,7.56
2018-12-19T01:15:06.891Z,7.53
2018-12-19T01:15:32.995Z,7.6
2018-12-19T01:15:59.094Z,7.53
2018-12-19T01:16:25.200Z,7.63
2018-12-19T01:16:51.303Z,7.6
2018-12-19T01:17:17.447Z,7.67
2018-12-19T01:17:43.553Z,7.73
2018-12-19T01:18:09.682Z,7.67
2018-12-19T01:18:35.822Z,7.66
2018-12-19T01:19:01.955Z,7.69
2018-12-19T01:19:28.053Z,7.7
2018-12-19T01:19:54.158Z,7.72
2018-12-19T01:20:20.267Z,7.69
2018-12-19T01:20:46.394Z,7.69
2018-12-19T01:21:12.531Z,7.69
2018-12-19T01:21:38.628Z,7.69
2018-12-19T01:22:04.740Z,7.73
2018-12-19T01:22:30.840Z,7.63
2018-12-19T01:22:56.982Z,7.73
2018-12-19T01:23:23.090Z,7.75
2018-12-19T01:23:49.199Z,7.72
2018-12-19T01:24:15.302Z,7.73
2018-12-19T01:24:41.416Z,7.67
2018-12-19T01:25:07.522Z,7.72
2018-12-19T01:25:33.624Z,7.72
2018-12-19T01:25:59.737Z,7.67
2018-12-19T01:26:25.844Z,7.67
2018-12-19T01:26:51.952Z,7.83
2018-12-19T01:27:18.052Z,7.76
2018-12-19T01:27:44.159Z,7.79
2018-12-19T01:28:10.297Z,7.8
2018-12-19T01:28:36.423Z,7.82
2018-12-19T01:29:02.531Z,7.75
2018-12-19T01:29:28.638Z,7.73
2018-12-19T01:29:54.742Z,7.83
2018-12-19T01:30:20.858Z,7.77
2018-12-19T01:30:46.955Z,7.8
2018-12-19T01:31:13.095Z,7.75
2018-12-19T01:31:39.203Z,7.8
2018-12-19T01:32:05.312Z,7.76
2018-12-19T01:32:31.627Z,7.85
2018-12-19T01:32:57.699Z,7.79
2018-12-19T01:33:23.810Z,7.79
2018-12-19T01:33:49.966Z,7.7
2018-12-19T01:34:16.075Z,7.69
2018-12-19T01:34:42.206Z,7.73
2018-12-19T01:35:08.343Z,7.8
2018-12-19T01:35:34.470Z,7.87
2018-12-19T01:36:00.576Z,7.79
2018-12-19T01:36:26.682Z,7.9
2018-12-19T01:36:52.781Z,7.88
2018-12-19T01:37:18.891Z,7.83
2018-12-19T01:37:44.990Z,7.76
2018-12-19T01:38:11.155Z,7.76
2018-12-19T01:38:37.260Z,7.8
2018-12-19T01:39:03.366Z,7.7
2018-12-19T01:39:29.494Z,7.67
2018-12-19T01:39:55.599Z,7.7
2018-12-19T01:40:21.736Z,7.72
2018-12-19T01:40:47.871Z,7.7
2018-12-19T01:41:13.984Z,7.7
2018-12-19T01:41:40.115Z,7.77
2018-12-19T01:42:06.218Z,7.8
2018-12-19T01:42:32.329Z,7.69
2018-12-19T01:42:58.436Z,7.72
2018-12-19T01:43:24.537Z,7.77
2018-12-19T01:43:50.672Z,7.82
2018-12-19T01:44:16.773Z,7.79
2018-12-19T01:44:42.884Z,7.75
2018-12-19T01:45:09.014Z,7.85
2018-12-19T01:45:35.117Z,7.67
2018-12-19T01:46:01.225Z,7.7
2018-12-19T01:46:27.333Z,7.72
2018-12-19T01:46:53.496Z,7.77
2018-12-19T01:47:19.615Z,7.8
2018-12-19T01:47:45.716Z,7.8
2018-12-19T01:48:11.822Z,7.87
2018-12-19T01:48:37.929Z,7.83
2018-12-19T01:49:04.033Z,7.73
2018-12-19T01:49:30.134Z,7.83
2018-12-19T01:49:56.241Z,7.77
2018-12-19T01:50:22.344Z,7.8
2018-12-19T01:50:48.443Z,7.7
2018-12-19T01:51:14.585Z,7.8
2018-12-19T01:51:40.724Z,7.77
2018-12-19T01:52:06.827Z,7.87
2018-12-19T01:52:32.939Z,7.67
2018-12-19T01:52:59.047Z,7.67
2018-12-19T01:53:25.150Z,7.69
2018-12-19T01:53:51.250Z,7.67
2018-12-19T01:54:17.354Z,7.72
2018-12-19T01:54:43.465Z,7.67
2018-12-19T01:55:09.573Z,7.73
2018-12-19T01:55:35.675Z,7.77
2018-12-19T01:56:01.786Z,7.73
2018-12-19T01:56:27.915Z,7.72
2018-12-19T01:56:54.052Z,7.7
2018-12-19T01:57:20.156Z,7.7
2018-12-19T01:57:46.268Z,7.69
2018-12-19T01:58:12.361Z,7.82
2018-12-19T01:58:38.475Z,7.7
2018-12-19T01:59:04.579Z,7.7
2018-12-19T01:59:30.719Z,7.75
2018-12-19T01:59:56.849Z,7.77
2018-12-19T02:00:22.985Z,7.87
2018-12-19T02:00:49.086Z,7.87
2018-12-19T02:01:15.190Z,7.87
2018-12-19T02:01:41.299Z,7.77
2018-12-19T02:02:07.402Z,7.83
2018-12-19T02:02:33.503Z,7.83
2018-12-19T02:02:59.611Z,7.79
2018-12-19T02:03:25.717Z,7.85
2018-12-19T02:03:51.836Z,7.88
2018-12-19T02:04:17.936Z,7.83
2018-12-19T02:04:44.046Z,7.8
2018-12-19T02:05:10.141Z,7.93
2018-12-19T02:05:36.251Z,7.82
2018-12-19T02:06:02.355Z,7.8
2018-12-19T02:06:28.458Z,7.87
2018-12-19T02:06:54.564Z,7.87
2018-12-19T02:07:20.687Z,7.8
2018-12-19T02:07:46.797Z,7.94
2018-12-19T02:08:12.909Z,7.85
2018-12-19T02:08:39.011Z,7.94
2018-12-19T02:09:05.122Z,7.91
2018-12-19T02:09:32.217Z,7.82
2018-12-19T02:09:58.323Z,7.93
2018-12-19T02:10:24.422Z,7.91
2018-12-19T02:10:50.536Z,7.95
2018-12-19T02:11:16.716Z,7.97
2018-12-19T02:11:42.859Z,7.93
2018-12-19T02:12:08.984Z,7.97
2018-12-19T02:12:35.091Z,7.98
2018-12-19T02:13:01.222Z,7.97
2018-12-19T02:13:27.327Z,7.97
2018-12-19T02:13:53.431Z,7.93
2018-12-19T02:14:19.543Z,7.97
2018-12-19T02:14:45.643Z,7.94
2018-12-19T02:15:11.754Z,7.97
2018-12-19T02:15:37.879Z,7.94
2018-12-19T02:16:03.988Z,7.95
2018-12-19T02:16:30.097Z,7.95
2018-12-19T02:16:56.206Z,8
2018-12-19T02:17:22.334Z,7.88
2018-12-19T02:17:48.440Z,7.94
2018-12-19T02:18:14.546Z,7.97
2018-12-19T02:18:40.655Z,8
2018-12-19T02:19:06.762Z,7.97
2018-12-19T02:19:32.869Z,7.98
2018-12-19T02:19:58.972Z,7.93
2018-12-19T02:20:25.072Z,7.98
2018-12-19T02:20:51.181Z,7.98
2018-12-19T02:21:17.316Z,7.98
2018-12-19T02:21:43.428Z,7.98
2018-12-19T02:22:09.534Z,7.98
2018-12-19T02:22:35.665Z,8.01
2018-12-19T02:23:01.769Z,8
2018-12-19T02:23:27.901Z,7.98
2018-12-19T02:23:54.010Z,8
2018-12-19T02:24:20.112Z,7.94
2018-12-19T02:24:46.215Z,7.98
2018-12-19T02:25:12.346Z,7.98
2018-12-19T02:25:38.450Z,7.97
2018-12-19T02:26:04.557Z,7.97
2018-12-19T02:26:30.692Z,8
2018-12-19T02:26:56.803Z,7.9
2018-12-19T02:27:22.898Z,7.97
2018-12-19T02:27:49.008Z,8.05
2018-12-19T02:28:15.106Z,7.94
2018-12-19T02:28:41.216Z,7.97
2018-12-19T02:29:07.319Z,8.01
2018-12-19T02:29:33.431Z,8
2018-12-19T02:29:59.532Z,7.98
2018-12-19T02:30:25.669Z,7.93
2018-12-19T02:30:51.794Z,7.94
2018-12-19T02:31:17.898Z,7.95
2018-12-19T02:31:44.008Z,7.97
2018-12-19T02:32:10.110Z,8.05
2018-12-19T02:32:36.254Z,8
2018-12-19T02:33:02.381Z,8.12
2018-12-19T02:33:28.523Z,8.1
2018-12-19T02:33:54.647Z,8.08
2018-12-19T02:34:20.779Z,8.06
2018-12-19T02:34:46.876Z,8.06
2018-12-19T02:35:13.039Z,8.08
2018-12-19T02:35:39.174Z,8
2018-12-19T02:36:05.283Z,8.06
2018-12-19T02:36:31.439Z,8.1
2018-12-19T02:36:57.547Z,8.09
2018-12-19T02:37:23.654Z,8.1
2018-12-19T02:37:49.764Z,8.1
2018-12-19T02:38:15.891Z,8.1
2018-12-19T02:38:42.020Z,8.15
2018-12-19T02:39:08.125Z,8.15
2018-12-19T02:39:36.184Z,8.06
2018-12-19T02:40:02.323Z,8.15
2018-12-19T02:40:28.421Z,8.1
2018-12-19T02:40:54.532Z,8.1
2018-12-19T02:41:20.704Z,8.1
2018-12-19T02:41:46.837Z,8.1
2018-12-19T02:42:12.941Z,8.09
2018-12-19T02:42:39.040Z,8.09
2018-12-19T02:43:05.145Z,8.08
2018-12-19T02:43:31.276Z,8.12
2018-12-19T02:43:57.379Z,8.12
2018-12-19T02:44:23.482Z,8.15
2018-12-19T02:44:49.588Z,8.19
2018-12-19T02:45:15.692Z,8.18
2018-12-19T02:45:41.802Z,8.16
2018-12-19T02:46:07.932Z,8.2
2018-12-19T02:46:34.055Z,8.09
2018-12-19T02:47:00.162Z,8.18
2018-12-19T02:47:26.298Z,8.12
2018-12-19T02:47:52.402Z,8.15
2018-12-19T02:48:18.509Z,8.19
2018-12-19T02:48:44.627Z,8.15
2018-12-19T02:49:10.722Z,8.15
2018-12-19T02:49:36.826Z,8.16
2018-12-19T02:50:02.932Z,8.12
2018-12-19T02:50:29.034Z,8.12
2018-12-19T02:50:55.164Z,8.1
2018-12-19T02:51:21.268Z,8.13
2018-12-19T02:51:47.376Z,8.09
2018-12-19T02:52:13.515Z,8.09
2018-12-19T02:52:39.617Z,8.12
2018-12-19T02:53:05.726Z,8.12
2018-12-19T02:53:31.835Z,8.2
2018-12-19T02:53:57.959Z,8.24
2018-12-19T02:54:24.072Z,8.18
2018-12-19T02:54:50.182Z,8.18
2018-12-19T02:55:16.313Z,8.19
2018-12-19T02:55:42.413Z,8.18
2018-12-19T02:56:08.526Z,8.28
2018-12-19T02:56:34.654Z,8.16
2018-12-19T02:57:00.758Z,8.2
2018-12-19T02:57:26.867Z,8.19
2018-12-19T02:57:52.973Z,8.1
2018-12-19T02:58:19.074Z,8.24
2018-12-19T02:58:45.181Z,8.15
2018-12-19T02:59:11.293Z,8.16
2018-12-19T02:59:37.414Z,8.06
2018-12-19T03:00:03.520Z,8.12
2018-12-19T03:00:29.627Z,8.1
2018-12-19T03:00:55.759Z,8.19
2018-12-19T03:01:21.896Z,8.23
2018-12-19T03:01:48.002Z,8.19
2018-12-19T03:02:14.143Z,8.18
2018-12-19T03:02:40.244Z,8.16
2018-12-19T03:03:06.352Z,8.23
2018-12-19T03:03:32.482Z,8.12
2018-12-19T03:03:58.618Z,8.2
2018-12-19T03:04:24.718Z,8.19
2018-12-19T03:04:50.860Z,8.2
2018-12-19T03:05:16.956Z,8.16
2018-12-19T03:05:43.068Z,8.3
2018-12-19T03:06:09.178Z,8.3
2018-12-19T03:06:35.306Z,8.2
2018-12-19T03:07:01.445Z,8.16
2018-12-19T03:07:27.577Z,8.3
2018-12-19T03:07:53.721Z,8.18
2018-12-19T03:08:19.850Z,8.19
2018-12-19T03:08:45.985Z,8.12
2018-12-19T03:09:12.092Z,8.19
2018-12-19T03:09:42.857Z,8.2
2018-12-19T03:10:05.355Z,8.23
2018-12-19T03:10:31.487Z,8.19
2018-12-19T03:10:57.589Z,8.24
2018-12-19T03:11:23.693Z,8.19
2018-12-19T03:11:49.820Z,8.2
2018-12-19T03:12:15.928Z,8.26
2018-12-19T03:12:42.036Z,8.26
2018-12-19T03:13:08.146Z,8.28
2018-12-19T03:13:34.253Z,8.26
2018-12-19T03:14:00.354Z,8.33
2018-12-19T03:14:26.454Z,8.27
2018-12-19T03:14:52.585Z,8.27
2018-12-19T03:15:18.696Z,8.28
2018-12-19T03:15:44.826Z,8.27
2018-12-19T03:16:10.966Z,8.28
2018-12-19T03:16:37.094Z,8.31
2018-12-19T03:17:03.208Z,8.3
2018-12-19T03:17:29.340Z,8.34
2018-12-19T03:17:55.474Z,8.38
2018-12-19T03:18:21.613Z,8.38
2018-12-19T03:18:47.770Z,8.38
2018-12-19T03:19:13.906Z,8.36
2018-12-19T03:19:40.012Z,8.41
2018-12-19T03:20:06.143Z,8.33
2018-12-19T03:20:32.247Z,8.41
2018-12-19T03:20:58.352Z,8.37
2018-12-19T03:21:24.464Z,8.42
2018-12-19T03:21:50.564Z,8.44
2018-12-19T03:22:16.666Z,8.37
2018-12-19T03:22:42.780Z,8.42
2018-12-19T03:23:08.911Z,8.48
2018-12-19T03:23:35.009Z,8.45
2018-12-19T03:24:01.113Z,8.46
2018-12-19T03:24:27.223Z,8.51
2018-12-19T03:24:53.358Z,8.51
2018-12-19T03:25:19.463Z,8.44
2018-12-19T03:25:45.589Z,8.56
2018-12-19T03:26:11.695Z,8.42
2018-12-19T03:26:37.827Z,8.46
2018-12-19T03:27:03.932Z,8.56
2018-12-19T03:27:30.040Z,8.61
2018-12-19T03:27:56.147Z,8.52
2018-12-19T03:28:22.244Z,8.63
2018-12-19T03:28:48.354Z,8.67
2018-12-19T03:29:14.487Z,8.55
2018-12-19T03:29:40.588Z,8.53
2018-12-19T03:30:06.722Z,8.66
2018-12-19T03:30:32.854Z,8.52
2018-12-19T03:30:59.009Z,8.63
2018-12-19T03:31:25.148Z,8.63
2018-12-19T03:31:51.306Z,8.55
2018-12-19T03:32:17.483Z,8.51
2018-12-19T03:32:43.664Z,8.53
2018-12-19T03:33:09.790Z,8.61
2018-12-19T03:33:35.899Z,8.61
2018-12-19T03:34:02.003Z,8.64
2018-12-19T03:34:28.109Z,8.63
2018-12-19T03:34:54.214Z,8.64
2018-12-19T03:35:20.316Z,8.6
2018-12-19T03:35:46.453Z,8.61
2018-12-19T03:36:12.552Z,8.66
2018-12-19T03:36:38.664Z,8.6
2018-12-19T03:37:04.767Z,8.58
2018-12-19T03:37:30.907Z,8.53
2018-12-19T03:37:57.012Z,8.61
2018-12-19T03:38:23.116Z,8.52
2018-12-19T03:38:49.228Z,8.55
2018-12-19T03:39:15.334Z,8.61
2018-12-19T03:39:41.436Z,8.52
2018-12-19T03:40:08.530Z,8.63
2018-12-19T03:40:34.663Z,8.61
2018-12-19T03:41:00.769Z,8.6
2018-12-19T03:41:26.928Z,8.63
2018-12-19T03:41:53.071Z,8.63
2018-12-19T03:42:19.171Z,8.63
2018-12-19T03:42:45.285Z,8.66
2018-12-19T03:43:11.385Z,8.58
2018-12-19T03:43:37.520Z,8.6
2018-12-19T03:44:03.620Z,8.63
2018-12-19T03:44:29.773Z,8.58
2018-12-19T03:44:55.868Z,8.61
2018-12-19T03:45:22.005Z,8.61
2018-12-19T03:45:48.107Z,8.64
2018-12-19T03:46:14.221Z,8.63
2018-12-19T03:46:40.388Z,8.61
2018-12-19T03:47:06.534Z,8.61
2018-12-19T03:47:32.646Z,8.63
2018-12-19T03:47:58.771Z,8.61
2018-12-19T03:48:24.875Z,8.61
2018-12-19T03:48:50.980Z,8.73
2018-12-19T03:49:17.106Z,8.6
2018-12-19T03:49:43.219Z,8.74
2018-12-19T03:50:09.346Z,8.71
2018-12-19T03:50:35.507Z,8.71
2018-12-19T03:51:01.609Z,8.7
2018-12-19T03:51:27.717Z,8.7
2018-12-19T03:51:53.822Z,8.7
2018-12-19T03:52:19.927Z,8.73
2018-12-19T03:52:46.037Z,8.79
2018-12-19T03:53:12.138Z,8.73
2018-12-19T03:53:38.246Z,8.84
2018-12-19T03:54:04.347Z,8.81
2018-12-19T03:54:30.447Z,8.85
2018-12-19T03:54:56.555Z,8.87
2018-12-19T03:55:22.661Z,8.78
2018-12-19T03:55:48.789Z,8.76
2018-12-19T03:56:14.895Z,8.87
2018-12-19T03:56:41.005Z,8.76
2018-12-19T03:57:07.131Z,8.79
2018-12-19T03:57:33.233Z,8.73
2018-12-19T03:57:59.340Z,8.81
2018-12-19T03:58:25.449Z,8.76
2018-12-19T03:58:51.553Z,8.78
2018-12-19T03:59:17.682Z,8.74
2018-12-19T03:59:43.788Z,8.73
2018-12-19T04:00:09.895Z,8.7
2018-12-19T04:00:36.000Z,8.73
2018-12-19T04:01:02.102Z,8.73
2018-12-19T04:01:28.217Z,8.73
2018-12-19T04:01:54.317Z,8.63
2018-12-19T04:02:20.417Z,8.74
2018-12-19T04:02:46.562Z,8.78
2018-12-19T04:03:12.695Z,8.84
2018-12-19T04:03:38.832Z,8.74
2018-12-19T04:04:04.967Z,8.82
2018-12-19T04:04:31.152Z,8.79
2018-12-19T04:04:57.251Z,8.76
2018-12-19T04:05:23.396Z,8.74
2018-12-19T04:05:49.526Z,8.73
2018-12-19T04:06:15.641Z,8.76
2018-12-19T04:06:41.773Z,8.73
2018-12-19T04:07:07.878Z,8.79
2018-12-19T04:07:33.986Z,8.82
2018-12-19T04:08:00.088Z,8.88
2018-12-19T04:08:26.224Z,8.84
2018-12-19T04:08:52.337Z,8.88
2018-12-19T04:09:18.443Z,8.82
2018-12-19T04:09:44.553Z,8.79
2018-12-19T04:10:11.653Z,8.88
2018-12-19T04:10:37.755Z,8.81
2018-12-19T04:11:03.854Z,8.82
2018-12-19T04:11:29.964Z,8.82
2018-12-19T04:11:56.077Z,8.91
2018-12-19T04:12:22.240Z,8.87
2018-12-19T04:12:48.342Z,8.84
2018-12-19T04:13:14.457Z,8.87
2018-12-19T04:13:40.559Z,8.84
2018-12-19T04:14:06.664Z,8.88
2018-12-19T04:14:32.802Z,8.88
2018-12-19T04:14:58.937Z,8.91
2018-12-19T04:15:25.053Z,8.79
2018-12-19T04:15:51.158Z,8.94
2018-12-19T04:16:17.272Z,8.89
2018-12-19T04:16:43.376Z,8.89
2018-12-19T04:17:09.482Z,8.82
2018-12-19T04:17:35.638Z,8.91
2018-12-19T04:18:01.755Z,8.84
2018-12-19T04:18:27.880Z,8.84
2018-12-19T04:18:53.986Z,8.91
2018-12-19T04:19:20.088Z,8.85
2018-12-19T04:19:46.194Z,8.85
2018-12-19T04:20:12.302Z,8.85
2018-12-19T04:20:38.399Z,8.85
2018-12-19T04:21:04.517Z,8.82
2018-12-19T04:21:30.639Z,8.84
2018-12-19T04:21:56.751Z,8.88
2018-12-19T04:22:22.865Z,8.89
2018-12-19T04:22:48.957Z,8.91
2018-12-19T04:23:15.064Z,8.94
2018-12-19T04:23:41.199Z,8.85
2018-12-19T04:24:07.306Z,8.85
2018-12-19T04:24:33.414Z,8.87
2018-12-19T04:24:59.512Z,8.85
2018-12-19T04:25:25.646Z,8.85
2018-12-19T04:25:51.745Z,8.84
2018-12-19T04:26:17.857Z,8.85
2018-12-19T04:26:43.981Z,8.84
2018-12-19T04:27:10.126Z,8.85
2018-12-19T04:27:36.232Z,8.88
2018-12-19T04:28:02.371Z,8.89
2018-12-19T04:28:28.498Z,8.89
2018-12-19T04:28:54.631Z,8.88
2018-12-19T04:29:20.755Z,8.85
2018-12-19T04:29:46.864Z,8.85
2018-12-19T04:30:12.974Z,8.89
2018-12-19T04:30:39.108Z,8.94
2018-12-19T04:31:05.272Z,9.02
2018-12-19T04:31:31.382Z,9.02
2018-12-19T04:31:57.484Z,8.91
2018-12-19T04:32:23.593Z,9.03
2018-12-19T04:32:49.726Z,9.02
2018-12-19T04:33:15.835Z,9.02
2018-12-19T04:33:41.967Z,8.95
2018-12-19T04:34:08.072Z,8.87
2018-12-19T04:34:34.200Z,8.94
2018-12-19T04:35:00.312Z,8.99
2018-12-19T04:35:26.446Z,9.03
2018-12-19T04:35:52.545Z,9.1
2018-12-19T04:36:18.655Z,8.99
2018-12-19T04:36:44.761Z,9.06
2018-12-19T04:37:10.871Z,9.1
2018-12-19T04:37:36.977Z,8.99
2018-12-19T04:38:03.087Z,9.02
2018-12-19T04:38:29.185Z,9.08
2018-12-19T04:38:55.319Z,9.04
2018-12-19T04:39:21.444Z,9.03
2018-12-19T04:39:47.549Z,9
2018-12-19T04:40:15.637Z,9.02
2018-12-19T04:40:41.737Z,9.04
2018-12-19T04:41:07.843Z,9.06
2018-12-19T04:41:33.950Z,8.94
2018-12-19T04:42:00.080Z,8.92
2018-12-19T04:42:26.178Z,8.99
2018-12-19T04:42:52.317Z,9.1
2018-12-19T04:43:18.451Z,8.97
2018-12-19T04:43:44.585Z,8.95
2018-12-19T04:44:10.688Z,9.02
2018-12-19T04:44:36.869Z,8.94
2018-12-19T04:45:02.979Z,8.88
2018-12-19T04:45:29.087Z,8.88
2018-12-19T04:45:55.187Z,8.99
2018-12-19T04:46:21.332Z,8.91
2018-12-19T04:46:47.436Z,8.92
2018-12-19T04:47:13.540Z,9.04
2018-12-19T04:47:39.679Z,9.02
2018-12-19T04:48:05.807Z,8.95
2018-12-19T04:48:31.967Z,8.95
2018-12-19T04:48:58.071Z,8.99
2018-12-19T04:49:24.206Z,8.88
2018-12-19T04:49:50.314Z,8.87
2018-12-19T04:50:16.422Z,8.85
2018-12-19T04:50:42.530Z,8.92
2018-12-19T04:51:08.668Z,8.94
2018-12-19T04:51:34.764Z,8.91
2018-12-19T04:52:00.873Z,8.87
2018-12-19T04:52:26.973Z,8.92
2018-12-19T04:52:53.086Z,8.85
2018-12-19T04:53:19.884Z,8.85
2018-12-19T04:53:45.989Z,8.88
2018-12-19T04:54:12.095Z,8.87
2018-12-19T04:54:38.206Z,8.74
2018-12-19T04:55:04.310Z,8.78
2018-12-19T04:55:30.411Z,8.74
2018-12-19T04:55:56.521Z,8.7
2018-12-19T04:56:22.622Z,8.6
2018-12-19T04:56:48.730Z,8.66
2018-12-19T04:57:14.844Z,8.69
2018-12-19T04:57:40.934Z,8.6
2018-12-19T04:58:07.050Z,8.7
2018-12-19T04:58:33.181Z,8.74
2018-12-19T04:58:59.285Z,8.79
2018-12-19T04:59:25.425Z,8.79
2018-12-19T04:59:51.529Z,8.76
2018-12-19T05:00:17.634Z,8.7
2018-12-19T05:00:43.800Z,8.73
2018-12-19T05:01:09.900Z,8.71
2018-12-19T05:01:36.059Z,8.69
2018-12-19T05:02:02.171Z,8.76
2018-12-19T05:02:28.274Z,8.7
2018-12-19T05:02:54.376Z,8.71
2018-12-19T05:03:20.509Z,8.67
2018-12-19T05:03:46.617Z,8.6
2018-12-19T05:04:12.776Z,8.61
2018-12-19T05:04:38.819Z,8.64
2018-12-19T05:05:04.931Z,8.64
2018-12-19T05:05:31.034Z,8.64
2018-12-19T05:05:57.172Z,8.69
2018-12-19T05:06:23.271Z,8.61
2018-12-19T05:06:49.392Z,8.61
2018-12-19T05:07:15.515Z,8.66
2018-12-19T05:07:41.619Z,8.61
2018-12-19T05:08:07.748Z,8.66
2018-12-19T05:08:33.857Z,8.61
2018-12-19T05:08:59.957Z,8.64
2018-12-19T05:09:26.070Z,8.63
2018-12-19T05:09:52.175Z,8.67
2018-12-19T05:10:19.266Z,8.56
2018-12-19T05:10:45.378Z,8.74
2018-12-19T05:11:11.542Z,8.71
2018-12-19T05:11:37.644Z,8.71
2018-12-19T05:12:03.807Z,8.71
2018-12-19T05:12:29.941Z,8.7
2018-12-19T05:12:56.078Z,8.67
2018-12-19T05:13:22.283Z,8.73
2018-12-19T05:13:48.388Z,8.76
2018-12-19T05:14:14.499Z,8.71
2018-12-19T05:14:40.590Z,8.74
2018-12-19T05:15:06.737Z,8.78
2018-12-19T05:15:32.841Z,8.74
2018-12-19T05:15:59.003Z,8.74
2018-12-19T05:16:25.112Z,8.73
2018-12-19T05:16:51.217Z,8.73
2018-12-19T05:17:17.317Z,8.64
2018-12-19T05:17:43.423Z,8.7
2018-12-19T05:18:09.530Z,8.73
2018-12-19T05:18:35.773Z,8.76
2018-12-19T05:19:01.850Z,8.7
2018-12-19T05:19:27.956Z,8.63
2018-12-19T05:19:54.093Z,8.73
2018-12-19T05:20:20.194Z,8.73
2018-12-19T05:20:46.290Z,8.71
2018-12-19T05:21:12.405Z,8.71
2018-12-19T05:21:38.506Z,8.69
2018-12-19T05:22:04.639Z,8.71
2018-12-19T05:22:30.747Z,8.63
2018-12-19T05:22:56.885Z,8.64
2018-12-19T05:23:23.017Z,8.67
2018-12-19T05:23:49.120Z,8.64
2018-12-19T05:24:15.893Z,8.63
2018-12-19T05:24:41.355Z,8.61
2018-12-19T05:25:07.461Z,8.69
2018-12-19T05:25:33.562Z,8.74
2018-12-19T05:25:59.674Z,8.7
2018-12-19T05:26:25.773Z,8.71
2018-12-19T05:26:51.884Z,8.79
2018-12-19T05:27:17.986Z,8.74
2018-12-19T05:27:44.093Z,8.76
2018-12-19T05:28:10.194Z,8.78
2018-12-19T05:28:36.298Z,8.74
2018-12-19T05:29:02.422Z,8.76
2018-12-19T05:29:28.525Z,8.78
2018-12-19T05:29:54.624Z,8.76
2018-12-19T05:30:20.760Z,8.73
2018-12-19T05:30:46.862Z,8.74
2018-12-19T05:31:12.987Z,8.73
2018-12-19T05:31:39.098Z,8.7
2018-12-19T05:32:05.203Z,8.69
2018-12-19T05:32:31.340Z,8.79
2018-12-19T05:32:57.450Z,8.73
2018-12-19T05:33:23.552Z,8.76
2018-12-19T05:33:49.654Z,8.84
2018-12-19T05:34:15.797Z,8.78
2018-12-19T05:34:41.906Z,8.91
2018-12-19T05:35:08.042Z,8.82
2018-12-19T05:35:34.139Z,8.84
2018-12-19T05:36:00.254Z,8.82
2018-12-19T05:36:26.510Z,8.85
2018-12-19T05:36:52.656Z,8.73
2018-12-19T05:37:18.790Z,8.78
2018-12-19T05:37:44.896Z,8.78
2018-12-19T05:38:11.001Z,8.79
2018-12-19T05:38:37.112Z,8.85
2018-12-19T05:39:03.213Z,8.82
2018-12-19T05:39:29.319Z,8.88
2018-12-19T05:39:55.486Z,8.82
2018-12-19T05:40:21.619Z,8.82
2018-12-19T05:40:47.718Z,8.84
2018-12-19T05:41:13.832Z,8.81
2018-12-19T05:41:39.935Z,8.85
2018-12-19T05:42:06.045Z,8.81
2018-12-19T05:42:32.148Z,8.85
2018-12-19T05:42:58.282Z,8.82
2018-12-19T05:43:24.383Z,8.89
2018-12-19T05:43:50.492Z,8.85
2018-12-19T05:44:16.603Z,8.85
2018-12-19T05:44:42.705Z,8.87
2018-12-19T05:45:08.808Z,8.87
2018-12-19T05:45:34.943Z,8.85
2018-12-19T05:46:01.049Z,8.78
2018-12-19T05:46:27.180Z,8.84
2018-12-19T05:46:53.285Z,8.85
2018-12-19T05:47:19.392Z,8.78
2018-12-19T05:47:45.497Z,8.78
2018-12-19T05:48:11.601Z,8.78
2018-12-19T05:48:37.713Z,8.76
2018-12-19T05:49:03.810Z,8.76
2018-12-19T05:49:29.950Z,8.81
2018-12-19T05:49:56.053Z,8.79